Time;durP1;ratioP1;P1;durP2;ratioP2;P2;SDS_P1;SDS_P2;PMS_P1;PMS_P2;Temp;Humidity;BMP_temperature;BMP_pressure;BME280_temperature;BME280_humidity;BME280_pressure;Samples;Min_cycle;Max_cycle;Signal;HPM_P1;HPM_P2
2021/05/01 00:02:21;;;;;;;13.87;12.67;;;;;;;10.30;60.91;101103.34;5121791;28;20262;-69
2021/05/01 00:04:46;;;;;;;13.47;12.17;;;;;;;10.88;59.37;101108.63;5121907;28;20159;-69
2021/05/01 00:07:11;;;;;;;14.30;12.90;;;;;;;10.90;59.47;101090.38;5120224;27;20233;-70
2021/05/01 00:09:37;;;;;;;13.80;12.50;;;;;;;11.14;58.69;101100.28;5120598;28;20171;-70
2021/05/01 00:12:08;;;;;;;13.33;12.10;;;;;;;10.29;61.07;101107.66;5121263;28;20248;-70
2021/05/01 00:14:36;;;;;;;13.43;12.03;;;;;;;10.68;59.42;101105.72;5121129;28;20429;-70
2021/05/01 00:17:01;;;;;;;11.90;10.90;;;;;;;10.97;59.24;101101.78;5121228;28;20814;-70
2021/05/01 00:19:26;;;;;;;13.53;12.33;;;;;;;11.31;58.12;101103.06;5121236;28;20553;-70
2021/05/01 00:21:52;;;;;;;13.53;12.20;;;;;;;11.26;57.84;101100.41;5121493;28;20168;-70
2021/05/01 00:24:17;;;;;;;13.27;11.90;;;;;;;10.20;61.00;101093.63;5121017;28;20235;-68
2021/05/01 00:26:42;;;;;;;13.30;12.00;;;;;;;10.79;58.82;101103.25;5100831;28;20247;-70
2021/05/01 00:29:08;;;;;;;12.63;11.50;;;;;;;10.65;59.52;101100.47;5101318;28;20180;-70
2021/05/01 00:31:35;;;;;;;12.70;11.50;;;;;;;10.86;59.17;101105.09;5114618;28;20180;-70
2021/05/01 00:34:01;;;;;;;13.23;11.97;;;;;;;10.74;60.22;101094.50;5121019;28;20213;-70
2021/05/01 00:36:26;;;;;;;13.30;12.10;;;;;;;11.20;58.41;101099.47;5121433;27;20401;-70
2021/05/01 00:38:52;;;;;;;13.00;11.73;;;;;;;10.86;58.92;101097.28;5120910;28;20176;-71
2021/05/01 00:41:17;;;;;;;11.90;10.80;;;;;;;10.36;61.23;101102.59;5118756;28;20183;-70
2021/05/01 00:43:42;;;;;;;12.93;11.80;;;;;;;10.94;59.30;101095.66;5121323;28;20509;-70
2021/05/01 00:46:08;;;;;;;11.97;10.83;;;;;;;10.90;59.03;101093.84;5120694;28;20211;-70
2021/05/01 00:48:34;;;;;;;12.27;11.07;;;;;;;11.28;57.88;101097.81;5102946;28;20528;-72
2021/05/01 00:51:01;;;;;;;12.53;11.43;;;;;;;10.58;59.94;101096.00;5120851;28;20413;-69
2021/05/01 00:53:26;;;;;;;13.43;12.23;;;;;;;10.90;59.31;101091.25;5120504;28;20428;-69
2021/05/01 00:55:54;;;;;;;11.67;10.57;;;;;;;10.84;59.23;101093.78;5120731;28;20405;-70
2021/05/01 00:58:20;;;;;;;13.03;11.87;;;;;;;10.37;60.98;101093.94;5120887;28;20206;-70
2021/05/01 01:03:14;;;;;;;12.80;11.53;;;;;;;10.52;60.63;101080.28;5120768;28;20425;-70
2021/05/01 01:05:39;;;;;;;12.00;10.90;;;;;;;10.21;61.13;101084.94;5120816;28;20533;-70
2021/05/01 01:08:05;;;;;;;13.07;11.90;;;;;;;10.35;61.09;101080.00;5120378;28;20555;-69
2021/05/01 01:10:30;;;;;;;15.00;12.23;;;;;;;10.04;62.59;101079.44;5119639;28;20167;-70
2021/05/01 01:12:55;;;;;;;12.57;11.27;;;;;;;10.77;59.67;101077.16;5120763;28;20183;-71
2021/05/01 01:15:25;;;;;;;12.40;11.20;;;;;;;10.55;60.34;101075.09;5120124;28;20220;-70
2021/05/01 01:17:50;;;;;;;13.10;11.80;;;;;;;10.68;60.87;101078.78;5120109;28;20178;-69
2021/05/01 01:20:16;;;;;;;12.13;10.90;;;;;;;10.94;59.86;101071.31;5120456;28;20421;-71
2021/05/01 01:22:41;;;;;;;13.00;11.70;;;;;;;10.14;61.04;101083.09;5117917;28;20179;-70
2021/05/01 01:25:07;;;;;;;12.13;10.93;;;;;;;10.54;60.99;101076.84;5119888;28;20218;-71
2021/05/01 01:27:33;;;;;;;12.53;11.33;;;;;;;10.65;60.39;101076.09;5120208;28;20195;-71
2021/05/01 01:29:58;;;;;;;12.37;11.17;;;;;;;10.51;59.72;101079.38;5119230;28;20407;-70
2021/05/01 01:32:23;;;;;;;13.70;12.30;;;;;;;10.08;61.77;101076.03;5119710;27;20255;-71
2021/05/01 01:34:49;;;;;;;12.40;11.30;;;;;;;10.52;60.81;101070.72;5120318;28;20171;-71
2021/05/01 01:37:14;;;;;;;12.77;11.57;;;;;;;10.79;59.48;101075.44;5119717;28;20541;-70
2021/05/01 01:39:40;;;;;;;11.83;10.73;;;;;;;10.88;58.93;101066.88;5119765;28;20167;-70
2021/05/01 01:42:05;;;;;;;15.60;12.87;;;;;;;10.93;58.85;101064.31;5110487;28;20176;-70
2021/05/01 01:44:31;;;;;;;11.40;10.40;;;;;;;9.76;62.66;101071.16;5099163;28;20446;-71
2021/05/01 01:46:56;;;;;;;11.90;10.70;;;;;;;10.14;60.57;101065.72;5099134;28;20208;-70
2021/05/01 01:49:23;;;;;;;12.70;11.50;;;;;;;10.63;60.76;101056.97;5100505;28;20183;-70
2021/05/01 01:51:48;;;;;;;11.93;10.93;;;;;;;10.82;59.31;101063.31;5119332;28;20506;-71
2021/05/01 01:54:13;;;;;;;12.70;11.50;;;;;;;11.27;58.09;101057.81;5119409;28;20534;-70
2021/05/01 01:56:39;;;;;;;12.23;11.13;;;;;;;10.75;59.33;101052.78;5119983;28;20191;-70
2021/05/01 01:59:05;;;;;;;12.33;11.23;;;;;;;10.27;61.10;101057.28;5118736;28;20175;-71
2021/05/01 02:01:31;;;;;;;11.47;10.47;;;;;;;9.89;61.73;101061.81;5119486;28;20194;-71
2021/05/01 02:03:57;;;;;;;12.67;11.47;;;;;;;10.50;59.86;101064.59;5121117;28;20168;-70
2021/05/01 02:06:22;;;;;;;13.00;11.77;;;;;;;10.19;60.30;101061.47;5098948;28;20735;-70
2021/05/01 02:08:48;;;;;;;11.90;10.80;;;;;;;10.37;61.78;101062.66;5098831;28;20168;-70
2021/05/01 02:11:13;;;;;;;12.27;11.17;;;;;;;10.54;60.40;101060.28;5100469;28;20183;-70
2021/05/01 02:13:38;;;;;;;12.27;11.00;;;;;;;10.45;60.42;101055.84;5119107;28;20182;-70
2021/05/01 02:16:04;;;;;;;11.43;10.37;;;;;;;10.35;61.08;101056.53;5119130;28;20262;-70
2021/05/01 02:18:30;;;;;;;12.43;11.23;;;;;;;10.46;60.17;101062.81;5119540;28;20278;-70
2021/05/01 02:20:56;;;;;;;13.47;12.10;;;;;;;10.24;60.54;101058.94;5101428;28;20188;-69
2021/05/01 02:23:21;;;;;;;11.57;10.57;;;;;;;9.87;61.73;101063.53;5098600;28;20422;-70
2021/05/01 02:25:46;;;;;;;12.43;11.33;;;;;;;10.04;61.34;101062.09;5098274;28;20493;-69
2021/05/01 02:28:12;;;;;;;13.93;12.50;;;;;;;9.75;62.22;101061.59;5098525;28;20183;-70
2021/05/01 02:30:37;;;;;;;13.00;11.80;;;;;;;10.31;60.23;101053.00;5098788;28;20213;-69
2021/05/01 02:33:02;;;;;;;13.07;11.80;;;;;;;9.80;61.96;101059.09;5097920;28;20176;-69
2021/05/01 02:35:32;;;;;;;12.30;11.17;;;;;;;9.89;62.74;101048.81;5110424;28;20190;-71
2021/05/01 02:37:58;;;;;;;12.73;11.53;;;;;;;9.85;61.95;101047.00;5119121;28;20241;-71
2021/05/01 02:40:24;;;;;;;13.00;11.70;;;;;;;10.51;60.00;101047.22;5118438;28;20807;-71
2021/05/01 02:42:50;;;;;;;12.60;11.33;;;;;;;10.08;60.68;101056.09;5118656;28;20466;-71
2021/05/01 02:45:18;;;;;;;14.47;11.87;;;;;;;9.44;62.71;101046.28;5119113;28;20401;-70
2021/05/01 02:47:44;;;;;;;13.30;12.10;;;;;;;10.38;60.62;101043.56;5118365;28;20465;-71
2021/05/01 02:50:10;;;;;;;12.80;11.60;;;;;;;10.10;61.00;101037.88;5108277;28;20705;-71
2021/05/01 02:52:36;;;;;;;13.10;11.77;;;;;;;10.26;60.26;101034.66;5098419;28;20425;-71
2021/05/01 02:55:05;;;;;;;13.20;11.90;;;;;;;10.25;60.82;101032.03;5098160;28;20410;-71
2021/05/01 02:57:30;;;;;;;13.50;12.20;;;;;;;9.72;61.58;101031.16;5098223;28;20172;-71
2021/05/01 03:00:01;;;;;;;13.37;12.07;;;;;;;10.38;60.03;101031.41;5099869;28;20841;-70
2021/05/01 03:02:26;;;;;;;13.27;11.90;;;;;;;10.45;60.34;101028.03;5118125;28;20544;-69
2021/05/01 03:04:52;;;;;;;12.70;11.50;;;;;;;10.36;60.02;101030.50;5118575;28;20466;-69
2021/05/01 03:07:18;;;;;;;16.17;12.60;;;;;;;10.13;60.64;101021.44;5118929;28;20203;-70
2021/05/01 03:09:43;;;;;;;12.70;11.50;;;;;;;10.45;60.00;101016.75;5118448;28;20262;-70
2021/05/01 03:12:08;;;;;;;12.80;11.50;;;;;;;9.81;61.00;101021.75;5118244;28;20501;-70
2021/05/01 03:14:34;;;;;;;13.93;12.63;;;;;;;10.13;60.35;101011.00;5118734;28;20179;-70
2021/05/01 03:16:59;;;;;;;14.33;12.73;;;;;;;10.26;60.05;101013.81;5098327;28;20190;-70
2021/05/01 03:19:25;;;;;;;14.87;13.40;;;;;;;10.42;59.95;101011.50;5097786;28;20200;-71
2021/05/01 03:21:50;;;;;;;14.23;12.60;;;;;;;9.96;61.76;101011.63;5098131;28;20180;-70
2021/05/01 03:24:15;;;;;;;13.53;12.20;;;;;;;10.73;59.21;101011.91;5097800;28;20597;-70
2021/05/01 03:26:41;;;;;;;13.33;12.03;;;;;;;10.47;59.85;101006.34;5097652;28;20204;-70
2021/05/01 03:29:06;;;;;;;14.13;12.73;;;;;;;10.23;61.15;101000.75;5098734;28;20175;-71
2021/05/01 03:31:33;;;;;;;13.80;12.40;;;;;;;10.43;59.92;100998.47;5097876;28;20188;-70
2021/05/01 03:33:58;;;;;;;13.87;12.47;;;;;;;10.32;60.35;100996.53;5097830;28;20188;-69
2021/05/01 03:36:23;;;;;;;15.10;13.50;;;;;;;9.34;63.67;101002.72;5098181;28;20676;-69
2021/05/01 03:38:49;;;;;;;15.07;13.27;;;;;;;10.18;61.30;101004.16;5097761;28;20214;-70
2021/05/01 03:41:14;;;;;;;14.90;12.57;;;;;;;9.81;61.10;100998.31;5097669;28;20488;-70
2021/05/01 03:43:42;;;;;;;16.73;13.30;;;;;;;10.07;61.61;101003.97;5098370;28;20209;-71
2021/05/01 03:46:10;;;;;;;14.37;13.07;;;;;;;9.97;61.39;101010.75;5111648;28;20203;-70
2021/05/01 03:48:36;;;;;;;14.63;13.07;;;;;;;10.00;61.14;101005.59;5121876;28;20733;-71
2021/05/01 03:51:03;;;;;;;15.63;14.17;;;;;;;9.64;62.65;101011.94;5121281;28;20420;-70
2021/05/01 03:53:29;;;;;;;14.70;13.30;;;;;;;9.40;63.30;101010.66;5121764;27;20168;-69
2021/05/01 03:55:54;;;;;;;15.73;14.13;;;;;;;9.61;62.73;101004.06;5121774;28;20405;-70
2021/05/01 03:58:19;;;;;;;16.70;14.97;;;;;;;9.92;62.14;101007.22;5122085;28;20171;-69
2021/05/01 04:00:45;;;;;;;15.20;13.63;;;;;;;10.22;60.64;101003.34;5111260;28;20180;-69
2021/05/01 04:03:13;;;;;;;14.73;13.20;;;;;;;9.58;62.98;101006.63;5101965;28;20564;-69
2021/05/01 04:05:44;;;;;;;15.17;13.57;;;;;;;9.46;62.96;101014.19;5101917;28;20180;-70
2021/05/01 04:08:10;;;;;;;13.57;12.37;;;;;;;9.84;62.36;101008.81;5100316;28;20418;-69
2021/05/01 04:10:35;;;;;;;20.77;14.60;;;;;;;10.18;61.16;101005.00;5100724;28;20414;-71
2021/05/01 04:13:00;;;;;;;14.67;13.17;;;;;;;9.68;62.50;101008.53;5101441;28;20168;-70
2021/05/01 04:15:26;;;;;;;15.67;14.17;;;;;;;9.84;62.41;101001.00;5100993;28;20187;-70
2021/05/01 04:17:53;;;;;;;15.10;13.67;;;;;;;9.15;64.67;101006.69;5100933;28;20172;-69
2021/05/01 04:20:19;;;;;;;14.20;12.90;;;;;;;9.07;63.72;101011.72;5101006;28;20434;-69
2021/05/01 04:22:44;;;;;;;14.10;12.80;;;;;;;9.18;64.08;100998.94;5100614;28;20814;-71
2021/05/01 04:25:10;;;;;;;15.00;13.50;;;;;;;9.75;63.42;100996.50;5100433;28;20234;-69
2021/05/01 04:27:35;;;;;;;15.23;13.73;;;;;;;10.02;61.62;101005.63;5101149;28;20203;-69
2021/05/01 04:30:00;;;;;;;14.50;13.00;;;;;;;9.99;61.58;101008.19;5100769;28;20575;-71
2021/05/01 04:32:26;;;;;;;14.13;12.73;;;;;;;9.87;61.85;100998.44;5100391;28;20168;-70
2021/05/01 04:34:51;;;;;;;15.70;14.10;;;;;;;9.87;62.32;101003.66;5100903;28;20165;-70
2021/05/01 04:37:16;;;;;;;14.23;12.73;;;;;;;9.10;63.68;101008.31;5100302;28;20172;-68
2021/05/01 04:39:42;;;;;;;14.83;13.30;;;;;;;9.63;63.31;101011.91;5100387;28;20183;-70
2021/05/01 04:42:08;;;;;;;15.47;13.97;;;;;;;9.10;64.54;101014.38;5100863;28;20176;-69
2021/05/01 04:44:33;;;;;;;14.67;13.17;;;;;;;8.95;65.59;101018.41;5099652;28;20191;-70
2021/05/01 04:46:59;;;;;;;14.70;13.23;;;;;;;9.61;62.68;101010.16;5099578;28;20472;-70
2021/05/01 04:49:24;;;;;;;14.77;13.23;;;;;;;9.90;61.48;101008.91;5100652;28;20167;-70
2021/05/01 04:51:49;;;;;;;14.67;13.20;;;;;;;8.89;65.08;101014.84;5100097;28;20180;-70
2021/05/01 04:54:15;;;;;;;14.97;13.47;;;;;;;9.15;64.64;101011.03;5100252;28;20195;-69
2021/05/01 04:56:40;;;;;;;15.70;13.87;;;;;;;9.28;62.86;101002.59;5100316;28;20175;-70
2021/05/01 04:59:06;;;;;;;14.93;13.47;;;;;;;9.57;63.16;101010.94;5100045;28;20438;-70
2021/05/01 05:01:33;;;;;;;15.23;13.63;;;;;;;9.73;62.15;101014.69;5099971;28;20442;-70
2021/05/01 05:03:59;;;;;;;13.63;12.37;;;;;;;10.15;61.42;101018.00;5100279;28;20172;-71
2021/05/01 05:06:27;;;;;;;14.93;13.20;;;;;;;9.32;63.13;101009.59;5099808;28;20466;-69
2021/05/01 05:08:53;;;;;;;15.23;13.63;;;;;;;9.96;62.20;101016.81;5099073;28;20172;-70
2021/05/01 05:11:18;;;;;;;14.63;13.13;;;;;;;10.03;61.62;101026.47;5099959;28;20818;-69
2021/05/01 05:13:43;;;;;;;14.27;12.97;;;;;;;9.69;62.28;101027.66;5098903;28;20175;-70
2021/05/01 05:16:09;;;;;;;14.10;12.70;;;;;;;9.66;62.08;101024.97;5099940;28;20219;-70
2021/05/01 05:18:34;;;;;;;13.87;12.53;;;;;;;9.45;62.39;101028.94;5099923;28;20268;-70
2021/05/01 05:21:00;;;;;;;14.53;13.00;;;;;;;9.29;63.69;101032.97;5099241;28;20172;-70
2021/05/01 05:23:26;;;;;;;15.77;14.17;;;;;;;9.35;63.08;101027.88;5099460;28;20435;-70
2021/05/01 05:25:51;;;;;;;14.43;12.90;;;;;;;8.52;66.02;101028.75;5099229;28;20316;-69
2021/05/01 05:28:17;;;;;;;15.23;13.13;;;;;;;8.70;64.57;101029.16;5099313;28;20479;-70
2021/05/01 05:30:42;;;;;;;14.43;12.93;;;;;;;8.22;65.91;101034.94;5099918;28;20184;-70
2021/05/01 05:33:07;;;;;;;15.53;13.70;;;;;;;8.37;65.03;101031.84;5099427;28;20176;-70
2021/05/01 05:35:33;;;;;;;15.50;13.67;;;;;;;9.08;64.02;101034.28;5098630;28;20172;-69
2021/05/01 05:37:58;;;;;;;13.30;11.90;;;;;;;9.59;61.89;101030.09;5099842;28;20433;-69
2021/05/01 05:40:24;;;;;;;14.43;12.90;;;;;;;9.28;62.06;101036.41;5099085;28;20178;-70
2021/05/01 05:42:50;;;;;;;15.10;13.50;;;;;;;9.15;62.87;101034.44;5099270;28;20168;-70
2021/05/01 05:45:23;;;;;;;13.50;12.10;;;;;;;8.43;64.42;101024.19;5100799;28;20260;-71
2021/05/01 05:47:49;;;;;;;13.73;12.20;;;;;;;8.65;64.06;101025.59;5099055;28;20763;-70
2021/05/01 05:50:14;;;;;;;13.40;12.10;;;;;;;9.05;62.67;101029.03;5098951;28;20422;-71
2021/05/01 05:52:40;;;;;;;13.43;12.07;;;;;;;8.83;63.27;101034.63;5098025;28;20176;-70
2021/05/01 05:55:05;;;;;;;12.30;11.10;;;;;;;8.65;64.05;101028.19;5098933;28;20179;-71
2021/05/01 05:57:31;;;;;;;14.00;12.50;;;;;;;9.24;61.05;101021.59;5099202;28;20164;-71
2021/05/01 05:59:59;;;;;;;13.60;12.20;;;;;;;9.09;61.36;101023.06;5099199;28;20192;-71
2021/05/01 06:02:25;;;;;;;13.37;12.03;;;;;;;9.05;62.09;101017.75;5099400;28;20176;-71
2021/05/01 06:04:56;;;;;;;13.07;11.80;;;;;;;9.16;60.87;101026.66;5099328;28;20410;-70
2021/05/01 06:07:40;;;;;;;12.87;11.53;;;;;;;8.76;63.04;101031.00;5080549;28;20462;-70
2021/05/01 06:10:07;;;;;;;12.73;11.47;;;;;;;8.92;62.30;101030.50;5098711;28;20423;-71
2021/05/01 06:12:33;;;;;;;14.50;13.00;;;;;;;9.22;61.82;101018.94;5097770;28;20822;-71
2021/05/01 06:15:03;;;;;;;13.30;12.00;;;;;;;9.51;59.91;101031.66;5098720;28;20418;-70
2021/05/01 06:17:29;;;;;;;13.60;12.23;;;;;;;9.47;60.15;101021.16;5099195;28;20402;-71
2021/05/01 06:19:56;;;;;;;13.17;11.60;;;;;;;8.86;61.92;101025.19;5098597;28;20839;-70
2021/05/01 06:22:22;;;;;;;11.97;10.83;;;;;;;9.46;59.81;101029.81;5098453;28;20542;-70
2021/05/01 06:24:47;;;;;;;13.47;11.90;;;;;;;9.47;60.15;101027.25;5098500;28;20477;-70
2021/05/01 06:27:16;;;;;;;14.70;12.30;;;;;;;9.31;60.60;101025.19;5098494;28;20223;-68
2021/05/01 06:29:43;;;;;;;13.53;11.80;;;;;;;8.87;60.44;101026.91;5111930;28;20479;-70
2021/05/01 06:32:11;;;;;;;13.73;12.33;;;;;;;8.91;61.02;101027.88;5117999;28;20435;-68
2021/05/01 06:34:37;;;;;;;13.27;11.97;;;;;;;10.00;58.27;101016.03;5118744;28;20689;-71
2021/05/01 06:37:04;;;;;;;13.60;12.20;;;;;;;10.24;57.80;101023.34;5118880;28;20478;-70
2021/05/01 06:39:35;;;;;;;13.73;12.30;;;;;;;10.45;56.45;101025.44;5118649;28;20821;-70
2021/05/01 06:42:04;;;;;;;13.33;12.00;;;;;;;9.65;59.08;101029.31;5118542;28;20421;-70
2021/05/01 06:44:49;;;;;;;13.70;12.43;;;;;;;10.11;57.42;101030.09;5116792;27;20780;-70
2021/05/01 06:47:16;;;;;;;12.57;11.40;;;;;;;10.88;55.11;101026.88;5117907;28;20946;-71
2021/05/01 06:50:03;;;;;;;13.37;12.17;;;;;;;10.56;55.86;101035.16;5118492;28;20409;-70
2021/05/01 06:52:29;;;;;;;13.07;11.87;;;;;;;11.28;54.24;101027.34;5118477;28;20409;-71
2021/05/01 06:55:00;;;;;;;12.20;11.00;;;;;;;10.55;56.56;101034.28;5118418;28;20451;-70
2021/05/01 06:57:26;;;;;;;12.43;11.33;;;;;;;10.77;56.32;101030.22;5117870;28;20469;-70
2021/05/01 06:59:53;;;;;;;13.30;11.87;;;;;;;10.91;55.69;101032.16;5112914;28;20422;-72
2021/05/01 07:02:23;;;;;;;12.50;11.37;;;;;;;10.75;55.29;101033.66;5104085;28;20255;-69
2021/05/01 07:04:51;;;;;;;13.00;11.60;;;;;;;11.41;53.86;101036.22;5118129;28;20427;-70
2021/05/01 07:07:17;;;;;;;11.90;10.73;;;;;;;10.40;57.06;101040.13;5109569;28;20508;-71
2021/05/01 07:09:42;;;;;;;11.60;10.53;;;;;;;10.95;55.33;101036.53;5097185;28;20414;-70
2021/05/01 07:12:08;;;;;;;12.07;11.03;;;;;;;11.01;55.67;101041.81;5097708;28;20522;-70
2021/05/01 07:14:33;;;;;;;13.83;12.43;;;;;;;9.80;58.63;101054.75;5098425;28;20206;-70
2021/05/01 07:17:05;;;;;;;11.30;10.20;;;;;;;11.12;54.57;101045.47;5097681;28;20180;-71
2021/05/01 07:19:32;;;;;;;12.33;11.17;;;;;;;11.34;54.68;101043.09;5098424;28;20195;-71
2021/05/01 07:21:57;;;;;;;12.87;11.53;;;;;;;11.37;54.01;101044.88;5101981;28;20418;-70
2021/05/01 07:24:23;;;;;;;12.43;11.30;;;;;;;9.97;57.74;101036.78;5101511;28;20737;-70
2021/05/01 07:26:49;;;;;;;12.30;11.00;;;;;;;11.90;52.66;101035.81;5101563;28;20245;-69
2021/05/01 07:29:14;;;;;;;11.00;10.00;;;;;;;13.78;47.95;101035.97;5101223;28;20651;-70
2021/05/01 07:31:40;;;;;;;10.67;9.67;;;;;;;15.00;44.59;101022.69;5121794;28;20203;-69
2021/05/01 07:34:09;;;;;;;11.53;10.43;;;;;;;14.21;46.42;101022.84;5122214;28;20168;-70
2021/05/01 07:36:42;;;;;;;10.83;9.73;;;;;;;15.44;43.05;101026.00;5122494;28;20402;-69
2021/05/01 07:39:12;;;;;;;10.23;9.33;;;;;;;15.18;43.75;101027.00;5121946;28;20724;-69
2021/05/01 07:41:41;;;;;;;10.07;9.13;;;;;;;16.46;40.59;101022.56;5121707;28;20415;-69
2021/05/01 07:44:08;;;;;;;10.07;9.10;;;;;;;15.96;41.33;101019.50;5121835;28;20445;-72
2021/05/01 07:46:34;;;;;;;10.60;9.50;;;;;;;15.34;42.77;101030.41;5104252;28;20462;-73
2021/05/01 07:49:00;;;;;;;10.63;9.63;;;;;;;17.40;38.66;101024.09;5101802;28;20402;-72
2021/05/01 07:51:26;;;;;;;10.37;9.50;;;;;;;17.74;37.86;101028.88;5101136;28;20755;-73
2021/05/01 07:53:52;;;;;;;9.83;8.93;;;;;;;16.66;40.54;101027.63;5100348;28;20552;-73
2021/05/01 07:56:17;;;;;;;10.03;9.10;;;;;;;15.28;42.55;101033.06;5101539;28;20509;-71
2021/05/01 07:58:42;;;;;;;11.07;10.07;;;;;;;17.87;37.74;101024.25;5101046;28;20434;-70
2021/05/01 08:01:08;;;;;;;10.77;9.80;;;;;;;17.95;37.10;101026.81;5100917;28;20178;-71
2021/05/01 08:03:34;;;;;;;10.17;9.20;;;;;;;17.27;38.46;101015.47;5123026;28;20163;-70
2021/05/01 08:06:00;;;;;;;10.70;9.80;;;;;;;16.57;39.23;101014.56;5121457;28;20195;-69
2021/05/01 08:08:25;;;;;;;10.57;9.63;;;;;;;16.72;40.08;101010.88;5115390;28;20535;-69
2021/05/01 08:10:51;;;;;;;10.90;9.80;;;;;;;13.13;47.96;101018.31;5100440;28;20169;-68
2021/05/01 08:13:16;;;;;;;10.87;9.90;;;;;;;13.47;46.98;101015.81;5100708;28;20196;-68
2021/05/01 08:15:41;;;;;;;11.13;10.13;;;;;;;14.21;46.75;101022.84;5100772;28;20172;-69
2021/05/01 08:18:07;;;;;;;10.77;9.80;;;;;;;15.53;43.04;101014.53;5101009;28;20176;-68
2021/05/01 08:20:33;;;;;;;10.80;9.87;;;;;;;16.49;41.11;101005.00;5099770;28;20168;-69
2021/05/01 08:22:59;;;;;;;10.53;9.53;;;;;;;16.67;40.34;101010.94;5100618;28;20435;-69
2021/05/01 08:25:24;;;;;;;11.27;10.23;;;;;;;15.57;42.95;101008.38;5100490;28;20461;-69
2021/05/01 08:27:49;;;;;;;9.70;8.70;;;;;;;16.67;40.44;101005.69;5100647;28;20214;-69
2021/05/01 08:30:16;;;;;;;11.27;10.17;;;;;;;14.26;45.46;101009.72;5104524;28;20597;-69
2021/05/01 08:32:43;;;;;;;10.97;9.60;;;;;;;17.28;39.69;101001.41;5120403;28;20178;-69
2021/05/01 08:35:09;;;;;;;9.70;8.80;;;;;;;19.01;35.42;100992.28;5120800;28;20410;-71
2021/05/01 08:37:34;;;;;;;10.47;9.57;;;;;;;18.93;35.63;100997.75;5121067;28;20665;-71
2021/05/01 08:40:00;;;;;;;9.70;8.90;;;;;;;19.57;34.21;100983.97;5102026;28;20184;-70
2021/05/01 08:42:26;;;;;;;10.17;9.20;;;;;;;21.40;30.44;100984.31;5100185;28;20490;-70
2021/05/01 08:44:52;;;;;;;9.90;9.00;;;;;;;18.45;35.18;100997.78;5099731;28;20229;-70
2021/05/01 08:47:17;;;;;;;10.40;9.50;;;;;;;19.69;33.90;100988.97;5100048;28;20466;-70
2021/05/01 08:49:42;;;;;;;9.70;8.90;;;;;;;18.93;34.58;100984.53;5100098;28;20171;-70
2021/05/01 08:52:09;;;;;;;9.77;8.97;;;;;;;17.67;37.16;100990.28;5100409;28;20172;-71
2021/05/01 08:54:34;;;;;;;10.57;9.67;;;;;;;18.30;36.17;100994.53;5113887;28;20462;-70
2021/05/01 08:57:00;;;;;;;10.10;9.20;;;;;;;19.69;33.70;100977.53;5120480;27;20416;-70
2021/05/01 08:59:26;;;;;;;10.50;9.60;;;;;;;19.16;34.91;100980.53;5119920;28;20177;-71
2021/05/01 09:01:52;;;;;;;10.33;9.43;;;;;;;19.33;34.18;100981.00;5120294;28;20410;-71
2021/05/01 09:04:17;;;;;;;11.10;10.10;;;;;;;15.07;42.54;101003.41;5120229;28;20176;-69
2021/05/01 09:06:44;;;;;;;10.73;9.70;;;;;;;16.70;38.68;100983.69;5120392;28;20490;-70
2021/05/01 09:09:10;;;;;;;9.70;8.90;;;;;;;20.02;33.33;100965.25;5107338;28;20217;-69
2021/05/01 09:11:40;;;;;;;10.53;9.63;;;;;;;20.84;31.49;100963.00;5099536;28;20402;-69
2021/05/01 09:14:24;;;;;;;9.60;8.83;;;;;;;21.14;30.73;100960.34;5099482;28;20395;-69
2021/05/01 09:17:01;;;;;;;10.63;9.53;;;;;;;20.90;30.96;100966.41;5099669;28;20410;-68
2021/05/01 09:19:30;;;;;;;9.97;9.10;;;;;;;17.63;37.52;100975.41;5099542;28;20414;-67
2021/05/01 09:22:03;;;;;;;10.13;9.33;;;;;;;20.37;32.67;100957.25;5099058;28;20744;-68
2021/05/01 09:24:29;;;;;;;9.33;8.63;;;;;;;18.01;35.74;100969.53;5112501;28;20550;-69
2021/05/01 09:26:54;;;;;;;8.83;8.13;;;;;;;19.89;32.50;100952.38;5119093;28;20457;-69
2021/05/01 09:29:37;;;;;;;10.17;9.17;;;;;;;19.69;32.83;100954.59;5119447;28;20235;-70
2021/05/01 09:32:04;;;;;;;9.03;8.23;;;;;;;17.10;36.04;100967.41;5119270;28;20174;-70
2021/05/01 09:34:50;;;;;;;10.10;9.30;;;;;;;17.33;37.27;100970.59;5119645;27;20504;-70
2021/05/01 09:37:17;;;;;;;9.10;8.37;;;;;;;17.24;36.39;100975.13;5118640;28;20758;-70
2021/05/01 09:40:01;;;;;;;10.30;9.40;;;;;;;18.85;34.37;100981.16;5118147;28;20428;-72
2021/05/01 09:42:29;;;;;;;9.93;9.03;;;;;;;19.29;33.35;100958.19;5118627;28;20409;-69
2021/05/01 09:45:09;;;;;;;10.00;9.10;;;;;;;17.60;36.69;100970.19;5119521;28;20448;-70
2021/05/01 09:47:35;;;;;;;10.20;9.20;;;;;;;19.18;33.90;100968.13;5119293;28;20555;-69
2021/05/01 09:50:16;;;;;;;12.07;10.90;;;;;;;20.21;31.69;100964.75;5119237;28;20501;-69
2021/05/01 09:52:59;;;;;;;10.10;9.30;;;;;;;20.60;31.39;100959.25;5119343;28;20167;-71
2021/05/01 09:55:43;;;;;;;9.67;8.97;;;;;;;20.04;31.60;100965.22;5104333;28;20430;-71
2021/05/01 09:58:26;;;;;;;9.63;8.73;;;;;;;20.59;31.41;100954.88;5098795;28;20811;-70
2021/05/01 10:01:12;;;;;;;10.13;8.93;;;;;;;21.90;29.28;100954.41;5098569;28;20429;-70
2021/05/01 10:03:38;;;;;;;10.40;9.50;;;;;;;21.34;29.43;100959.72;5098648;28;20850;-69
2021/05/01 10:06:05;;;;;;;10.50;9.70;;;;;;;21.98;28.74;100950.56;5098867;28;20450;-70
2021/05/01 10:08:31;;;;;;;9.40;8.70;;;;;;;19.42;33.33;100973.78;5097796;28;20172;-70
2021/05/01 10:10:57;;;;;;;9.80;8.83;;;;;;;18.03;36.66;100964.22;5098528;28;20413;-71
2021/05/01 10:13:23;;;;;;;9.80;9.03;;;;;;;18.56;35.04;100956.19;5098467;28;20838;-71
2021/05/01 10:15:49;;;;;;;11.27;10.13;;;;;;;18.51;34.67;100958.09;5118932;28;20405;-68
2021/05/01 10:18:20;;;;;;;11.07;10.07;;;;;;;18.29;35.85;100947.06;5109567;28;21236;-74
2021/05/01 10:20:50;;;;;;;10.33;9.43;;;;;;;17.67;36.52;100945.47;5098624;28;20402;-71
2021/05/01 10:23:18;;;;;;;11.77;10.60;;;;;;;15.09;42.42;100954.38;5098436;28;20497;-70
2021/05/01 10:25:45;;;;;;;12.67;11.60;;;;;;;15.41;42.63;100940.19;5098187;28;20650;-70
2021/05/01 10:28:14;;;;;;;12.57;11.47;;;;;;;18.38;36.38;100925.75;5098615;28;20417;-71
2021/05/01 10:30:45;;;;;;;12.40;11.40;;;;;;;19.53;34.23;100918.84;5098045;28;20506;-68
2021/05/01 10:33:31;;;;;;;11.37;10.47;;;;;;;15.37;41.54;100921.81;5098280;28;20417;-68
2021/05/01 10:36:21;;;;;;;12.60;11.50;;;;;;;17.07;37.88;100917.41;5098262;28;20850;-68
2021/05/01 10:38:57;;;;;;;12.63;11.50;;;;;;;18.64;35.48;100903.22;5097490;28;20425;-69
2021/05/01 10:41:24;;;;;;;11.67;10.77;;;;;;;17.63;36.96;100904.22;5098013;28;20421;-68
2021/05/01 10:43:51;;;;;;;11.17;10.27;;;;;;;20.24;32.36;100889.69;5098416;28;20554;-68
2021/05/01 10:46:25;;;;;;;11.37;10.47;;;;;;;20.88;30.71;100889.59;5097490;28;20472;-68
2021/05/01 10:48:52;;;;;;;12.00;11.00;;;;;;;17.38;36.73;100899.38;5098098;28;20501;-71
2021/05/01 10:51:23;;;;;;;11.70;10.80;;;;;;;16.82;37.60;100900.16;5097962;28;20413;-68
2021/05/01 10:54:21;;;;;;;11.50;10.60;;;;;;;19.49;33.00;100886.31;5097730;28;20847;-69
2021/05/01 10:56:50;;;;;;;11.70;10.70;;;;;;;19.37;32.82;100891.91;5102176;28;20406;-68
2021/05/01 10:59:17;;;;;;;11.87;10.97;;;;;;;16.87;36.67;100901.88;5102398;28;20483;-68
2021/05/01 11:01:47;;;;;;;11.30;10.30;;;;;;;20.12;30.94;100889.13;5101174;28;20664;-67
2021/05/01 11:04:19;;;;;;;10.30;9.50;;;;;;;17.48;35.79;100892.19;5102036;28;20497;-67
2021/05/01 11:06:48;;;;;;;10.93;10.00;;;;;;;17.68;34.98;100895.38;5101913;28;20457;-68
2021/05/01 11:09:25;;;;;;;11.60;10.70;;;;;;;17.85;35.29;100892.41;5102031;28;20414;-67
2021/05/01 11:11:56;;;;;;;10.07;9.20;;;;;;;17.67;35.22;100900.63;5100984;28;20421;-67
2021/05/01 11:14:24;;;;;;;11.13;10.13;;;;;;;17.91;34.67;100898.47;5114165;28;20483;-67
2021/05/01 11:17:13;;;;;;;10.70;9.90;;;;;;;18.46;33.89;100886.03;5122157;28;20388;-67
2021/05/01 11:19:43;;;;;;;11.60;10.63;;;;;;;17.93;34.48;100897.59;5093423;28;20489;-68